This is the latest recevied weather packets stored in our database for station/object WMKK. If no packets are shown the sender has not sent any weather packets the latest 10 day(s).
| Time | Temp. | Humidity | Pressure | Rain* | Wind** | Luminosity | Snow |
|---|---|---|---|---|---|---|---|
| 1777866000 | 30.56° C | 74% | 1010 hPa | - | - | - | - |
| 1777846224 | 25.56° C | 94% | 1008 hPa | - | - | - | - |
| 1777840799 | 25.56° C | 94% | 1007 hPa | - | - | - | - |
| 1777837199 | 25.56° C | 94% | 1008 hPa | - | - | - | - |
| 1777835417 | 26.67° C | 88% | 1009 hPa | - | - | - | - |
| 1777831816 | 25.56° C | 94% | 1009 hPa | - | - | - | - |
| 1777817413 | 25.56° C | 94% | 1009 hPa | - | - | - | - |
| 1777806618 | 25.56° C | 94% | 1007 hPa | - | - | - | - |
| 1777803016 | 25° C | 10% | - | - | - | - | - |
| 1777801201 | 25° C | 94% | 1006 hPa | - | - | - | - |
| 1777800594 | 25° C | 10% | - | - | - | - | - |
| 1777799415 | 25° C | 94% | 1006 hPa | - | - | - | - |
| 1777798794 | 25° C | 94% | 1006 hPa | - | - | - | - |
| 1777797597 | 25° C | 94% | 1006 hPa | - | - | - | - |
| 1777796394 | 25° C | 10% | - | - | - | - | - |
| 1777795824 | 27.78° C | 83% | 1006 hPa | - | - | - | - |
| 1777794001 | 32.78° C | 66% | 1005 hPa | - | - | - | - |
| 1777792215 | 32.78° C | 66% | 1006 hPa | - | - | - | - |
| 1777790398 | 32.78° C | 66% | 1006 hPa | - | - | - | - |
| 1777788616 | 32.78° C | 66% | 1007 hPa | - | - | - | - |
| 1777786800 | 32.78° C | 66% | 1008 hPa | - | - | - | - |
| 1777785015 | 32.78° C | 66% | 1008 hPa | - | - | - | - |
| 1777783198 | 30.56° C | 74% | 1009 hPa | - | - | - | - |
| 1777781423 | 33.89° C | 59% | 1009 hPa | - | - | - | - |
| 1777779597 | 32.78° C | 62% | 1010 hPa | - | - | - | - |
* Rain since midnight (hover to see other rain measurements)
** Current wind speed in m/s (hover to see current wind gust speed)